Time;durP1;ratioP1;P1;durP2;ratioP2;P2;SDS_P1;SDS_P2;PMS_P1;PMS_P2;Temp;Humidity;BMP_temperature;BMP_pressure;BME280_temperature;BME280_humidity;BME280_pressure;Samples;Min_cycle;Max_cycle;Signal;HPM_P1;HPM_P2
2022/07/29 00:00:49;;;;;;;1.83;1.13;;;;;;;;;;5039105;28;94315;-50
2022/07/29 00:03:17;;;;;;;0.83;0.70;;;;;;;;;;5039151;28;93803;-49
2022/07/29 00:05:45;;;;;;;2.70;0.80;;;;;;;;;;5039804;28;92274;-49
2022/07/29 00:08:15;;;;;;;1.83;1.10;;;;;;;;;;5039985;28;91236;-49
2022/07/29 00:10:44;;;;;;;1.23;1.00;;;;;;;;;;5039170;28;94156;-50
2022/07/29 00:13:13;;;;;;;2.67;0.90;;;;;;;;;;5039319;28;93864;-49
2022/07/29 00:15:42;;;;;;;1.10;0.90;;;;;;;;;;5039289;28;92993;-49
2022/07/29 00:18:10;;;;;;;1.07;0.90;;;;;;;;;;5039502;28;91970;-49
2022/07/29 00:20:38;;;;;;;1.53;1.00;;;;;;;;;;5037791;28;93301;-49
2022/07/29 00:23:07;;;;;;;1.47;1.10;;;;;;;;;;5038941;28;92797;-49
2022/07/29 00:25:40;;;;;;;2.00;1.33;;;;;;;;;;5038208;28;92140;-49
2022/07/29 00:28:09;;;;;;;1.83;1.07;;;;;;;;;;5039047;28;92034;-49
2022/07/29 00:30:39;;;;;;;0.90;0.70;;;;;;;;;;5038761;28;94173;-49
2022/07/29 00:33:07;;;;;;;2.47;0.97;;;;;;;;;;5039027;28;93872;-49
2022/07/29 00:35:44;;;;;;;1.67;1.00;;;;;;;;;;5040585;27;92091;-50
2022/07/29 00:38:13;;;;;;;0.67;0.50;;;;;;;;;;5042471;28;92680;-49
2022/07/29 00:40:41;;;;;;;1.70;0.93;;;;;;;;;;5041733;28;95215;-49
2022/07/29 00:43:11;;;;;;;0.97;0.83;;;;;;;;;;5041991;28;94793;-49
2022/07/29 00:45:41;;;;;;;1.07;0.77;;;;;;;;;;5042385;28;92144;-49
2022/07/29 00:48:10;;;;;;;0.90;0.90;;;;;;;;;;5041577;28;92103;-49
2022/07/29 00:50:38;;;;;;;2.43;0.80;;;;;;;;;;5042517;28;93127;-49
2022/07/29 00:53:07;;;;;;;1.90;1.23;;;;;;;;;;5042007;28;92861;-49
2022/07/29 00:55:36;;;;;;;1.60;1.00;;;;;;;;;;5041404;28;92183;-50
2022/07/29 00:58:04;;;;;;;0.87;0.70;;;;;;;;;;5042725;28;91349;-49
2022/07/29 01:00:32;;;;;;;2.80;0.80;;;;;;;;;;5041807;28;94240;-49
2022/07/29 01:03:02;;;;;;;5.67;0.77;;;;;;;;;;5041443;28;92846;-48
2022/07/29 01:05:31;;;;;;;0.97;0.70;;;;;;;;;;5042039;28;93242;-49
2022/07/29 01:08:18;;;;;;;0.87;0.80;;;;;;;;;;5042281;28;92086;-49
2022/07/29 01:10:46;;;;;;;0.87;0.50;;;;;;;;;;5041947;28;94235;-49
2022/07/29 01:13:14;;;;;;;1.20;0.77;;;;;;;;;;5041780;28;92821;-48
2022/07/29 01:15:44;;;;;;;0.60;0.50;;;;;;;;;;5042431;28;91985;-48
2022/07/29 01:18:18;;;;;;;0.60;0.60;;;;;;;;;;5041315;28;92083;-48
2022/07/29 01:20:57;;;;;;;2.33;0.77;;;;;;;;;;5041783;28;93548;-48
2022/07/29 01:23:45;;;;;;;0.93;0.80;;;;;;;;;;5042119;28;92844;-49
2022/07/29 01:26:23;;;;;;;2.20;1.00;;;;;;;;;;5041874;28;91986;-50
2022/07/29 01:29:04;;;;;;;2.77;0.87;;;;;;;;;;5041919;28;92041;-49
2022/07/29 01:31:37;;;;;;;1.80;0.90;;;;;;;;;;5040573;28;94045;-48
2022/07/29 01:34:19;;;;;;;0.73;0.70;;;;;;;;;;5041585;28;94802;-50
2022/07/29 01:36:49;;;;;;;1.03;0.90;;;;;;;;;;5041925;28;92102;-49
2022/07/29 01:39:18;;;;;;;1.20;0.53;;;;;;;;;;5041563;28;92160;-50
2022/07/29 01:41:49;;;;;;;0.80;0.80;;;;;;;;;;5041180;28;92125;-50
2022/07/29 01:44:20;;;;;;;3.17;0.70;;;;;;;;;;5039791;28;93008;-49
2022/07/29 01:46:50;;;;;;;0.97;0.67;;;;;;;;;;5040768;28;92118;-49
2022/07/29 01:49:21;;;;;;;0.50;0.50;;;;;;;;;;5041174;28;91292;-49
2022/07/29 01:51:51;;;;;;;3.70;1.10;;;;;;;;;;5040885;28;94146;-49
2022/07/29 01:54:20;;;;;;;1.07;0.70;;;;;;;;;;5040886;28;93980;-49
2022/07/29 01:56:48;;;;;;;2.50;1.00;;;;;;;;;;5040955;28;92971;-49
2022/07/29 01:59:17;;;;;;;0.80;0.80;;;;;;;;;;5041382;28;91946;-50
2022/07/29 02:01:47;;;;;;;5.83;0.90;;;;;;;;;;5040440;28;93232;-49
2022/07/29 02:04:15;;;;;;;2.70;1.27;;;;;;;;;;5041217;28;93892;-49
2022/07/29 02:06:58;;;;;;;1.20;0.90;;;;;;;;;;5041531;28;92082;-49
2022/07/29 02:09:26;;;;;;;2.20;1.30;;;;;;;;;;5040519;28;92083;-48
2022/07/29 02:11:55;;;;;;;1.67;1.10;;;;;;;;;;5041107;28;94271;-49
2022/07/29 02:14:24;;;;;;;5.00;1.10;;;;;;;;;;5041054;28;92706;-49
2022/07/29 02:16:54;;;;;;;2.27;1.00;;;;;;;;;;5041396;28;91898;-49
2022/07/29 02:19:23;;;;;;;1.63;1.17;;;;;;;;;;5040876;28;92097;-49
2022/07/29 02:21:52;;;;;;;2.70;1.60;;;;;;;;;;5040926;28;95151;-49
2022/07/29 02:24:20;;;;;;;1.90;1.13;;;;;;;;;;5040690;28;94876;-49
2022/07/29 02:26:48;;;;;;;2.07;1.60;;;;;;;;;;5040861;28;91941;-50
2022/07/29 02:29:17;;;;;;;1.77;1.50;;;;;;;;;;5040987;28;92005;-50
2022/07/29 02:31:46;;;;;;;2.57;1.53;;;;;;;;;;5040656;28;94256;-49
2022/07/29 02:34:16;;;;;;;2.37;1.47;;;;;;;;;;5040366;28;92940;-48
2022/07/29 02:36:47;;;;;;;2.30;1.93;;;;;;;;;;5041005;28;92072;-48
2022/07/29 02:39:16;;;;;;;3.53;2.10;;;;;;;;;;5040944;28;91346;-49
2022/07/29 02:41:45;;;;;;;2.57;1.77;;;;;;;;;;5040392;28;93231;-48
2022/07/29 02:44:14;;;;;;;3.27;2.10;;;;;;;;;;5040204;28;93977;-48
2022/07/29 02:46:44;;;;;;;3.03;1.93;;;;;;;;;;5040659;28;92764;-49
2022/07/29 02:49:14;;;;;;;5.47;2.97;;;;;;;;;;5041063;28;92156;-49
2022/07/29 02:51:46;;;;;;;5.80;2.93;;;;;;;;;;5040301;28;94194;-50
2022/07/29 02:54:21;;;;;;;4.33;2.57;;;;;;;;;;5040447;28;92830;-50
2022/07/29 02:56:52;;;;;;;4.23;2.97;;;;;;;;;;5040544;28;91937;-50
2022/07/29 02:59:21;;;;;;;5.17;3.00;;;;;;;;;;5039082;28;92017;-48
2022/07/29 03:01:50;;;;;;;6.43;3.43;;;;;;;;;;5039802;28;94177;-49
2022/07/29 03:04:18;;;;;;;5.20;3.43;;;;;;;;;;5040091;28;92730;-48
2022/07/29 03:06:48;;;;;;;6.43;3.93;;;;;;;;;;5040620;28;92071;-49
2022/07/29 03:09:17;;;;;;;7.23;4.10;;;;;;;;;;5040468;28;92120;-48
2022/07/29 03:11:45;;;;;;;4.70;3.23;;;;;;;;;;5039267;28;94102;-49
2022/07/29 03:14:18;;;;;;;6.17;4.20;;;;;;;;;;5039954;28;93682;-49
2022/07/29 03:16:48;;;;;;;8.17;4.80;;;;;;;;;;5040409;28;93095;-48
2022/07/29 03:19:16;;;;;;;11.57;5.00;;;;;;;;;;5038596;28;92082;-48
2022/07/29 03:21:44;;;;;;;9.47;5.30;;;;;;;;;;5037974;28;93330;-48
2022/07/29 03:24:26;;;;;;;7.93;4.97;;;;;;;;;;5038588;28;93932;-48
2022/07/29 03:26:56;;;;;;;7.47;5.40;;;;;;;;;;5038100;28;92496;-49
2022/07/29 03:29:24;;;;;;;7.13;5.13;;;;;;;;;;5039250;28;91504;-47
2022/07/29 03:32:00;;;;;;;9.83;5.50;;;;;;;;;;5039005;28;93120;-49
2022/07/29 03:34:30;;;;;;;8.63;5.47;;;;;;;;;;5038901;28;94095;-49
2022/07/29 03:36:59;;;;;;;8.73;5.57;;;;;;;;;;5039222;28;93063;-49
2022/07/29 03:39:29;;;;;;;12.17;6.50;;;;;;;;;;5040048;28;92004;-49
2022/07/29 03:41:57;;;;;;;9.97;6.40;;;;;;;;;;5040000;28;94105;-49
2022/07/29 03:44:26;;;;;;;10.30;6.50;;;;;;;;;;5039125;28;92974;-49
2022/07/29 03:46:54;;;;;;;10.73;6.47;;;;;;;;;;5039772;28;92080;-49
2022/07/29 03:49:22;;;;;;;13.03;7.17;;;;;;;;;;5039739;28;92045;-49
2022/07/29 03:51:51;;;;;;;10.17;7.00;;;;;;;;;;5039458;28;94216;-49
2022/07/29 03:54:19;;;;;;;9.40;6.17;;;;;;;;;;5038254;28;94070;-49
2022/07/29 03:56:50;;;;;;;11.60;7.37;;;;;;;;;;5038760;28;91989;-49
2022/07/29 03:59:19;;;;;;;10.93;7.90;;;;;;;;;;5039899;28;92004;-50
2022/07/29 04:01:47;;;;;;;10.87;6.53;;;;;;;;;;5038748;28;95104;-50
2022/07/29 04:04:16;;;;;;;10.63;7.13;;;;;;;;;;5038886;28;94795;-49
2022/07/29 04:06:45;;;;;;;16.23;8.10;;;;;;;;;;5039549;28;92012;-49
2022/07/29 04:09:15;;;;;;;11.97;6.43;;;;;;;;;;5039365;28;92060;-50
2022/07/29 04:11:43;;;;;;;9.60;6.87;;;;;;;;;;5038571;28;94360;-50
2022/07/29 04:14:32;;;;;;;11.37;6.87;;;;;;;;;;5038865;28;92640;-49
2022/07/29 04:17:01;;;;;;;14.97;7.33;;;;;;;;;;5039750;28;91779;-50
2022/07/29 04:19:29;;;;;;;9.97;6.57;;;;;;;;;;5039970;28;91447;-50
2022/07/29 04:21:57;;;;;;;11.47;7.57;;;;;;;;;;5038840;28;93101;-49
2022/07/29 04:24:26;;;;;;;9.47;6.60;;;;;;;;;;5038788;28;93871;-49
2022/07/29 04:26:54;;;;;;;11.93;6.93;;;;;;;;;;5038658;28;92978;-49
2022/07/29 04:29:22;;;;;;;8.27;5.97;;;;;;;;;;5039481;28;92310;-49
2022/07/29 04:31:52;;;;;;;10.53;5.90;;;;;;;;;;5038323;28;92059;-48
2022/07/29 04:34:20;;;;;;;9.37;5.57;;;;;;;;;;5039143;28;93002;-49
2022/07/29 04:36:48;;;;;;;9.77;6.40;;;;;;;;;;5039042;28;92041;-49
2022/07/29 04:39:17;;;;;;;8.63;6.00;;;;;;;;;;5038704;28;91975;-50
2022/07/29 04:41:50;;;;;;;6.97;5.50;;;;;;;;;;5038758;28;92761;-49
2022/07/29 04:44:21;;;;;;;9.73;5.50;;;;;;;;;;5037895;28;93714;-50
2022/07/29 04:46:57;;;;;;;7.83;5.07;;;;;;;;;;5038369;28;92049;-49
2022/07/29 04:49:25;;;;;;;7.90;5.73;;;;;;;;;;5039056;28;92035;-49
2022/07/29 04:51:54;;;;;;;7.87;5.70;;;;;;;;;;5037713;28;95080;-49
2022/07/29 04:54:23;;;;;;;7.47;5.27;;;;;;;;;;5038411;28;93768;-49
2022/07/29 04:56:52;;;;;;;7.30;5.27;;;;;;;;;;5035628;28;92241;-49
2022/07/29 04:59:20;;;;;;;7.87;5.53;;;;;;;;;;5036597;28;92491;-49
2022/07/29 05:01:49;;;;;;;7.23;5.20;;;;;;;;;;5036239;28;93172;-49
2022/07/29 05:04:18;;;;;;;9.63;6.90;;;;;;;;;;5034942;28;93953;-49
2022/07/29 05:06:48;;;;;;;9.20;5.27;;;;;;;;;;5037383;28;92060;-50
2022/07/29 05:09:16;;;;;;;7.17;5.03;;;;;;;;;;5037266;28;91362;-50
2022/07/29 05:11:44;;;;;;;6.97;5.40;;;;;;;;;;5036886;28;94258;-49
2022/07/29 05:14:12;;;;;;;5.73;4.57;;;;;;;;;;5038045;28;93865;-49
2022/07/29 05:16:41;;;;;;;9.13;4.80;;;;;;;;;;5038077;28;93048;-49
2022/07/29 05:19:10;;;;;;;6.77;4.43;;;;;;;;;;5038819;28;92084;-49
2022/07/29 05:21:43;;;;;;;6.67;4.47;;;;;;;;;;5038379;28;94193;-49
2022/07/29 05:24:11;;;;;;;6.20;4.20;;;;;;;;;;5040190;28;94001;-49
2022/07/29 05:26:40;;;;;;;6.77;4.70;;;;;;;;;;5041127;28;92024;-48
2022/07/29 05:29:08;;;;;;;5.07;3.80;;;;;;;;;;5041914;28;92049;-49
2022/07/29 05:31:57;;;;;;;6.73;4.50;;;;;;;;;;5041381;28;95405;-49
2022/07/29 05:34:25;;;;;;;6.03;3.73;;;;;;;;;;5041452;28;92941;-48
2022/07/29 05:36:55;;;;;;;7.80;4.63;;;;;;;;;;5041843;28;92061;-49
2022/07/29 05:39:23;;;;;;;4.60;3.50;;;;;;;;;;5042178;28;92096;-50
2022/07/29 05:42:12;;;;;;;6.87;4.40;;;;;;;;;;5041326;28;96354;-50
2022/07/29 05:44:40;;;;;;;4.73;4.13;;;;;;;;;;5040758;28;93893;-50
2022/07/29 05:47:08;;;;;;;5.13;3.70;;;;;;;;;;5041174;28;92172;-49
2022/07/29 05:49:36;;;;;;;5.23;3.67;;;;;;;;;;5041516;28;91901;-49
2022/07/29 05:52:06;;;;;;;5.03;3.53;;;;;;;;;;5040447;28;94175;-49
2022/07/29 05:54:35;;;;;;;7.67;3.73;;;;;;;;;;5040769;28;94032;-50
2022/07/29 05:57:03;;;;;;;3.63;3.13;;;;;;;;;;5041337;28;92041;-49
2022/07/29 05:59:31;;;;;;;3.80;3.30;;;;;;;;;;5041735;28;91318;-49
2022/07/29 06:02:00;;;;;;;4.50;3.00;;;;;;;;;;5040705;28;94216;-49
2022/07/29 06:04:28;;;;;;;4.83;2.90;;;;;;;;;;5041157;28;92754;-49
2022/07/29 06:06:57;;;;;;;4.23;2.90;;;;;;;;;;5041335;28;93172;-49
2022/07/29 06:09:26;;;;;;;3.27;2.97;;;;;;;;;;5041656;28;92065;-49
2022/07/29 06:11:57;;;;;;;4.07;2.77;;;;;;;;;;5040289;28;93766;-49
2022/07/29 06:14:26;;;;;;;4.67;2.93;;;;;;;;;;5040340;28;92871;-49
2022/07/29 06:16:54;;;;;;;3.60;2.70;;;;;;;;;;5040480;28;91893;-49
2022/07/29 06:19:22;;;;;;;6.33;2.83;;;;;;;;;;5041158;28;91870;-49
2022/07/29 06:21:51;;;;;;;3.53;2.00;;;;;;;;;;5040404;28;94027;-49
2022/07/29 06:24:19;;;;;;;2.93;1.87;;;;;;;;;;5041035;28;93946;-49
2022/07/29 06:26:49;;;;;;;3.17;2.00;;;;;;;;;;5040972;28;92187;-49
2022/07/29 06:29:17;;;;;;;3.20;2.00;;;;;;;;;;5041165;28;92050;-49
2022/07/29 06:31:46;;;;;;;3.53;2.13;;;;;;;;;;5039799;28;95228;-49
2022/07/29 06:34:14;;;;;;;2.63;2.10;;;;;;;;;;5040363;27;94872;-49
2022/07/29 06:36:43;;;;;;;4.57;2.00;;;;;;;;;;5039643;28;92148;-48
2022/07/29 06:39:13;;;;;;;1.70;1.60;;;;;;;;;;5040821;28;92056;-48
2022/07/29 06:41:41;;;;;;;2.47;1.53;;;;;;;;;;5040052;28;93305;-48
2022/07/29 06:44:14;;;;;;;2.00;1.50;;;;;;;;;;5040446;28;93751;-48
2022/07/29 06:46:43;;;;;;;4.27;2.00;;;;;;;;;;5040492;28;92080;-49
2022/07/29 06:49:13;;;;;;;2.23;1.20;;;;;;;;;;5041126;28;91164;-48
2022/07/29 06:51:42;;;;;;;5.10;1.67;;;;;;;;;;5039866;28;94040;-48
2022/07/29 06:54:10;;;;;;;3.77;1.60;;;;;;;;;;5040134;28;92898;-49
2022/07/29 06:56:41;;;;;;;2.13;1.17;;;;;;;;;;5040178;28;92939;-48
2022/07/29 06:59:10;;;;;;;2.50;1.73;;;;;;;;;;5040541;28;92065;-49
2022/07/29 07:01:39;;;;;;;1.40;1.20;;;;;;;;;;5039334;28;93123;-48
2022/07/29 07:04:09;;;;;;;4.23;1.07;;;;;;;;;;5039661;28;92942;-48
2022/07/29 07:06:37;;;;;;;1.40;1.23;;;;;;;;;;5040837;28;91984;-49
2022/07/29 07:09:05;;;;;;;1.80;1.10;;;;;;;;;;5040596;28;92112;-49
2022/07/29 07:11:34;;;;;;;1.60;1.10;;;;;;;;;;5040464;28;93081;-49
2022/07/29 07:14:02;;;;;;;2.37;1.20;;;;;;;;;;5040555;28;92791;-49
2022/07/29 07:16:31;;;;;;;2.40;1.60;;;;;;;;;;5040399;28;91897;-48
2022/07/29 07:19:02;;;;;;;2.43;1.53;;;;;;;;;;5039799;28;92196;-48
2022/07/29 07:21:30;;;;;;;1.20;1.10;;;;;;;;;;5038796;28;93131;-48
2022/07/29 07:23:58;;;;;;;1.00;0.90;;;;;;;;;;5039348;28;94790;-48
2022/07/29 07:26:27;;;;;;;1.27;1.00;;;;;;;;;;5039813;28;92022;-49
2022/07/29 07:28:55;;;;;;;1.50;1.20;;;;;;;;;;5039517;28;92091;-49
2022/07/29 07:31:23;;;;;;;1.07;0.83;;;;;;;;;;5038964;28;94329;-49
2022/07/29 07:33:53;;;;;;;1.03;0.83;;;;;;;;;;5039896;28;93739;-49
2022/07/29 07:36:23;;;;;;;0.87;0.87;;;;;;;;;;5038426;28;92131;-49
2022/07/29 07:38:51;;;;;;;1.27;0.90;;;;;;;;;;5039941;28;91318;-49
2022/07/29 07:41:19;;;;;;;3.93;1.10;;;;;;;;;;5039914;28;93332;-49
2022/07/29 07:43:48;;;;;;;1.07;0.77;;;;;;;;;;5039819;28;94126;-49
2022/07/29 07:46:16;;;;;;;0.80;0.60;;;;;;;;;;5038838;28;93054;-49
2022/07/29 07:48:44;;;;;;;1.67;0.70;;;;;;;;;;5039871;28;92098;-49
2022/07/29 07:51:13;;;;;;;1.80;0.83;;;;;;;;;;5039149;28;93234;-48
2022/07/29 07:53:44;;;;;;;0.97;0.80;;;;;;;;;;5039207;28;93989;-48
2022/07/29 07:56:12;;;;;;;1.67;0.90;;;;;;;;;;5039632;28;92148;-48
2022/07/29 07:58:41;;;;;;;0.80;0.70;;;;;;;;;;5039666;28;92040;-48
2022/07/29 08:01:09;;;;;;;1.27;1.03;;;;;;;;;;5039211;28;93154;-49
2022/07/29 08:03:37;;;;;;;0.70;0.70;;;;;;;;;;5039670;28;94589;-49
2022/07/29 08:06:06;;;;;;;0.83;0.70;;;;;;;;;;5039168;28;92030;-49
2022/07/29 08:08:34;;;;;;;1.13;0.57;;;;;;;;;;5037777;28;92202;-49
2022/07/29 08:11:04;;;;;;;0.60;0.60;;;;;;;;;;5038430;28;95240;-49
2022/07/29 08:13:37;;;;;;;0.73;0.67;;;;;;;;;;5038297;28;93679;-49
2022/07/29 08:16:12;;;;;;;0.43;0.43;;;;;;;;;;5038989;28;91814;-49
2022/07/29 08:18:41;;;;;;;1.00;0.77;;;;;;;;;;5038898;28;92067;-48
2022/07/29 08:21:09;;;;;;;0.60;0.60;;;;;;;;;;5038518;28;94442;-49
2022/07/29 08:23:45;;;;;;;1.13;0.53;;;;;;;;;;5038883;28;92709;-49
2022/07/29 08:26:22;;;;;;;0.50;0.50;;;;;;;;;;5038816;28;91846;-48
2022/07/29 08:28:50;;;;;;;0.70;0.70;;;;;;;;;;5039087;28;91192;-49
2022/07/29 08:31:19;;;;;;;1.00;0.70;;;;;;;;;;5038623;28;94094;-48
2022/07/29 08:33:47;;;;;;;0.60;0.53;;;;;;;;;;5039040;28;93747;-49
2022/07/29 08:36:15;;;;;;;0.63;0.50;;;;;;;;;;5038496;28;93038;-49
2022/07/29 08:38:44;;;;;;;0.40;0.40;;;;;;;;;;5039216;28;92067;-49
2022/07/29 08:41:12;;;;;;;0.90;0.70;;;;;;;;;;5038663;28;94464;-49
2022/07/29 08:43:42;;;;;;;1.63;0.53;;;;;;;;;;5037626;28;94173;-49
2022/07/29 08:46:10;;;;;;;2.30;0.80;;;;;;;;;;5039281;28;92012;-49
2022/07/29 08:48:39;;;;;;;0.50;0.50;;;;;;;;;;5039070;28;91949;-50
2022/07/29 08:51:07;;;;;;;2.23;0.50;;;;;;;;;;5036959;28;94336;-49
2022/07/29 08:53:37;;;;;;;0.70;0.50;;;;;;;;;;5038419;28;93796;-48
2022/07/29 08:56:06;;;;;;;0.87;0.47;;;;;;;;;;5038828;27;92044;-49
2022/07/29 08:58:34;;;;;;;0.67;0.50;;;;;;;;;;5041293;28;92064;-48
2022/07/29 09:01:06;;;;;;;0.63;0.63;;;;;;;;;;5041010;28;95031;-48
2022/07/29 09:03:39;;;;;;;0.70;0.63;;;;;;;;;;5041078;28;93752;-49
2022/07/29 09:06:08;;;;;;;0.93;0.50;;;;;;;;;;5041941;28;92735;-49
2022/07/29 09:08:36;;;;;;;1.73;0.60;;;;;;;;;;5042394;28;91947;-49
2022/07/29 09:11:04;;;;;;;1.23;0.50;;;;;;;;;;5042105;28;94259;-49
2022/07/29 09:13:33;;;;;;;0.60;0.50;;;;;;;;;;5041707;28;93871;-49
2022/07/29 09:16:01;;;;;;;0.77;0.70;;;;;;;;;;5042538;28;92192;-48
2022/07/29 09:18:37;;;;;;;1.00;0.90;;;;;;;;;;5041985;28;91299;-48
2022/07/29 09:24:01;;;;;;;0.70;0.70;;;;;;;;;;5041391;28;92749;-48
2022/07/29 09:26:30;;;;;;;1.03;0.93;;;;;;;;;;5041163;28;93027;-49
2022/07/29 09:28:59;;;;;;;1.30;1.03;;;;;;;;;;5041532;28;92005;-48
2022/07/29 09:31:36;;;;;;;2.10;1.23;;;;;;;;;;5041048;28;94277;-49
2022/07/29 09:34:06;;;;;;;1.77;1.17;;;;;;;;;;5041627;28;93787;-48
2022/07/29 09:36:40;;;;;;;2.97;1.30;;;;;;;;;;5042077;28;91985;-50
2022/07/29 09:39:08;;;;;;;2.20;0.93;;;;;;;;;;5041789;28;91997;-50
2022/07/29 09:41:46;;;;;;;4.27;1.27;;;;;;;;;;5040756;28;93404;-50
2022/07/29 09:44:14;;;;;;;3.30;1.50;;;;;;;;;;5041023;28;92766;-50
2022/07/29 09:46:49;;;;;;;1.53;1.10;;;;;;;;;;5042101;28;91874;-49
2022/07/29 09:49:19;;;;;;;4.23;1.83;;;;;;;;;;5041188;28;92132;-49
2022/07/29 09:51:48;;;;;;;1.43;1.10;;;;;;;;;;5040902;28;93800;-48
2022/07/29 09:54:25;;;;;;;2.37;1.50;;;;;;;;;;5041172;28;93734;-48
2022/07/29 09:56:53;;;;;;;3.17;1.70;;;;;;;;;;5041467;28;92190;-48
2022/07/29 09:59:26;;;;;;;1.40;1.27;;;;;;;;;;5041411;28;92071;-48
2022/07/29 10:01:54;;;;;;;4.97;1.40;;;;;;;;;;5039990;28;94258;-50
2022/07/29 10:04:24;;;;;;;3.60;1.60;;;;;;;;;;5041369;28;93834;-48
2022/07/29 10:06:59;;;;;;;2.27;1.50;;;;;;;;;;5041239;28;92053;-48
2022/07/29 10:09:32;;;;;;;3.33;1.50;;;;;;;;;;5040608;27;91272;-48
2022/07/29 10:12:10;;;;;;;2.00;1.57;;;;;;;;;;5040013;28;92297;-49
2022/07/29 10:14:39;;;;;;;2.23;1.53;;;;;;;;;;5040997;28;93846;-49
2022/07/29 10:17:08;;;;;;;3.13;1.50;;;;;;;;;;5041090;28;92982;-48
2022/07/29 10:19:38;;;;;;;1.77;1.20;;;;;;;;;;5041262;28;92058;-48
2022/07/29 10:22:07;;;;;;;1.40;1.30;;;;;;;;;;5040229;28;94274;-50
2022/07/29 10:24:35;;;;;;;1.10;1.00;;;;;;;;;;5040236;28;92805;-49
2022/07/29 10:27:03;;;;;;;1.17;1.00;;;;;;;;;;5040126;28;92109;-50
2022/07/29 10:29:32;;;;;;;3.47;1.20;;;;;;;;;;5040801;28;92080;-48
2022/07/29 10:32:04;;;;;;;2.23;1.23;;;;;;;;;;5039880;28;93110;-49
2022/07/29 10:34:34;;;;;;;1.93;0.90;;;;;;;;;;5040560;28;92951;-49
2022/07/29 10:37:05;;;;;;;1.43;1.30;;;;;;;;;;5040621;28;92133;-49
2022/07/29 10:39:37;;;;;;;3.43;1.50;;;;;;;;;;5040830;28;92023;-49
2022/07/29 10:42:17;;;;;;;3.93;1.53;;;;;;;;;;5040050;28;93865;-49
2022/07/29 10:44:47;;;;;;;1.67;1.03;;;;;;;;;;5040022;28;94700;-49
2022/07/29 10:47:21;;;;;;;1.63;1.30;;;;;;;;;;5040378;28;92166;-49
2022/07/29 10:49:56;;;;;;;2.30;1.10;;;;;;;;;;5040326;28;92103;-49
2022/07/29 10:52:28;;;;;;;2.40;1.10;;;;;;;;;;5040445;28;93121;-49
2022/07/29 10:55:00;;;;;;;1.40;1.00;;;;;;;;;;5038848;28;96945;-48
2022/07/29 10:57:31;;;;;;;2.70;1.20;;;;;;;;;;5039763;28;92109;-49
2022/07/29 11:00:32;;;;;;;0.70;0.70;;;;;;;;;;5040365;28;91457;-49
2022/07/29 11:03:00;;;;;;;3.83;1.47;;;;;;;;;;5039725;28;92043;-48
2022/07/29 11:06:02;;;;;;;1.30;0.93;;;;;;;;;;5039537;28;93832;-49
2022/07/29 11:08:37;;;;;;;2.30;1.20;;;;;;;;;;5023482;28;93025;-49
2022/07/29 11:11:24;;;;;;;1.83;1.13;;;;;;;;;;5040303;28;92203;-49
2022/07/29 11:13:57;;;;;;;1.03;0.90;;;;;;;;;;5028948;28;94182;-50
2022/07/29 11:16:26;;;;;;;4.30;1.10;;;;;;;;;;5040143;28;91873;-50
2022/07/29 11:19:14;;;;;;;1.47;1.17;;;;;;;;;;5040236;28;92047;-49
2022/07/29 11:21:49;;;;;;;2.50;1.07;;;;;;;;;;5040012;28;91885;-49
2022/07/29 11:24:35;;;;;;;2.03;1.20;;;;;;;;;;5039944;28;93992;-49
2022/07/29 11:27:13;;;;;;;1.43;1.07;;;;;;;;;;5039942;28;93812;-49
2022/07/29 11:29:54;;;;;;;1.53;1.10;;;;;;;;;;5040036;28;91783;-49
2022/07/29 11:32:23;;;;;;;3.43;1.07;;;;;;;;;;5039715;28;92047;-50
2022/07/29 11:34:51;;;;;;;3.33;1.40;;;;;;;;;;5038896;28;94034;-49
2022/07/29 11:37:24;;;;;;;6.50;2.00;;;;;;;;;;5039551;28;93905;-49
2022/07/29 11:40:16;;;;;;;1.63;1.37;;;;;;;;;;5038614;28;92100;-50
2022/07/29 11:42:46;;;;;;;4.13;1.73;;;;;;;;;;5039508;28;92088;-50
2022/07/29 11:45:16;;;;;;;3.83;2.13;;;;;;;;;;5038696;28;94300;-49
2022/07/29 11:48:05;;;;;;;4.33;2.40;;;;;;;;;;5039013;28;92437;-49
2022/07/29 11:50:53;;;;;;;5.70;2.47;;;;;;;;;;5039589;28;91882;-50
2022/07/29 11:53:22;;;;;;;3.37;2.13;;;;;;;;;;5040157;28;91338;-49
2022/07/29 11:55:51;;;;;;;3.70;1.80;;;;;;;;;;5039210;28;94320;-49
2022/07/29 11:58:22;;;;;;;4.83;1.53;;;;;;;;;;5039173;28;92932;-50
2022/07/29 12:01:14;;;;;;;2.63;1.70;;;;;;;;;;5039054;28;92981;-49
2022/07/29 12:03:42;;;;;;;3.67;2.20;;;;;;;;;;5039489;28;92061;-51
2022/07/29 12:06:14;;;;;;;5.27;2.17;;;;;;;;;;5039184;28;93978;-49
2022/07/29 12:08:45;;;;;;;3.20;2.07;;;;;;;;;;5038445;28;93072;-49
2022/07/29 12:11:19;;;;;;;2.63;1.80;;;;;;;;;;5039339;28;92096;-49
2022/07/29 12:13:49;;;;;;;4.47;2.40;;;;;;;;;;5039281;28;92122;-49
2022/07/29 12:16:18;;;;;;;3.73;2.30;;;;;;;;;;5038254;28;94376;-49
2022/07/29 12:18:57;;;;;;;6.40;2.40;;;;;;;;;;5039099;28;92965;-49
2022/07/29 12:21:26;;;;;;;3.80;2.33;;;;;;;;;;5038972;28;91958;-49
2022/07/29 12:23:56;;;;;;;4.53;2.27;;;;;;;;;;5039116;28;91826;-49
2022/07/29 12:26:34;;;;;;;6.67;2.00;;;;;;;;;;5038037;28;95212;-49
2022/07/29 12:29:03;;;;;;;4.50;1.90;;;;;;;;;;5038879;28;94816;-49
2022/07/29 12:31:38;;;;;;;6.07;2.60;;;;;;;;;;5038122;28;92043;-49
2022/07/29 12:34:11;;;;;;;3.17;1.87;;;;;;;;;;5038746;28;91858;-49
2022/07/29 12:36:39;;;;;;;3.07;2.20;;;;;;;;;;5038608;28;93144;-49
2022/07/29 12:39:08;;;;;;;3.93;2.30;;;;;;;;;;5038460;28;92823;-49
2022/07/29 12:41:38;;;;;;;4.13;2.23;;;;;;;;;;5039097;28;91878;-49
2022/07/29 12:44:06;;;;;;;2.50;1.73;;;;;;;;;;5039345;28;91317;-49
2022/07/29 12:46:35;;;;;;;4.13;1.90;;;;;;;;;;5038349;28;92046;-49
2022/07/29 12:49:04;;;;;;;1.90;1.50;;;;;;;;;;5037956;28;92734;-49
2022/07/29 12:51:32;;;;;;;3.37;1.97;;;;;;;;;;5037348;28;92992;-49
2022/07/29 12:54:04;;;;;;;3.03;1.53;;;;;;;;;;5038788;28;91979;-51
2022/07/29 12:56:32;;;;;;;3.30;1.87;;;;;;;;;;5037794;28;93251;-49
2022/07/29 12:59:16;;;;;;;4.37;2.30;;;;;;;;;;5037954;28;93976;-49
2022/07/29 13:01:44;;;;;;;4.23;1.70;;;;;;;;;;5037517;28;92048;-49
2022/07/29 13:04:12;;;;;;;2.43;2.03;;;;;;;;;;5038236;28;92070;-49
2022/07/29 13:06:41;;;;;;;2.63;1.80;;;;;;;;;;5037835;28;94257;-49
2022/07/29 13:09:14;;;;;;;1.40;1.20;;;;;;;;;;5038052;28;94252;-49
2022/07/29 13:11:43;;;;;;;2.80;1.40;;;;;;;;;;5038112;28;92155;-49
2022/07/29 13:14:31;;;;;;;3.93;1.87;;;;;;;;;;5037943;28;91973;-49
2022/07/29 13:17:02;;;;;;;2.87;1.43;;;;;;;;;;5037673;28;96017;-49
2022/07/29 13:19:34;;;;;;;5.30;1.90;;;;;;;;;;5037851;28;94742;-49
2022/07/29 13:22:03;;;;;;;2.43;1.60;;;;;;;;;;5038303;28;92092;-49
2022/07/29 13:24:31;;;;;;;1.87;1.40;;;;;;;;;;5038448;28;92119;-49
2022/07/29 13:26:59;;;;;;;1.70;1.50;;;;;;;;;;5037674;28;94324;-49
2022/07/29 13:29:34;;;;;;;2.50;1.57;;;;;;;;;;5037973;28;93645;-50
2022/07/29 13:32:02;;;;;;;1.40;1.10;;;;;;;;;;5037995;28;92135;-49
2022/07/29 13:34:31;;;;;;;2.23;1.70;;;;;;;;;;5038755;28;91233;-49
2022/07/29 13:36:59;;;;;;;2.77;1.70;;;;;;;;;;5037970;28;94126;-50
2022/07/29 13:39:27;;;;;;;1.47;1.37;;;;;;;;;;5037908;28;93947;-50
2022/07/29 13:41:56;;;;;;;2.40;1.53;;;;;;;;;;5037306;28;93143;-49
2022/07/29 13:44:24;;;;;;;3.57;2.00;;;;;;;;;;5040041;27;92114;-49
2022/07/29 13:46:54;;;;;;;2.87;1.77;;;;;;;;;;5041029;28;93516;-49
2022/07/29 13:49:23;;;;;;;1.93;1.53;;;;;;;;;;5041005;28;92819;-49
2022/07/29 13:51:51;;;;;;;3.23;2.00;;;;;;;;;;5041648;28;92076;-51
2022/07/29 13:54:19;;;;;;;2.53;1.50;;;;;;;;;;5041227;28;91980;-49
2022/07/29 13:56:48;;;;;;;3.03;1.80;;;;;;;;;;5040925;28;94085;-49
2022/07/29 13:59:16;;;;;;;3.80;1.83;;;;;;;;;;5041615;28;92792;-49
2022/07/29 14:01:45;;;;;;;2.87;1.60;;;;;;;;;;5040521;28;92049;-49
2022/07/29 14:04:15;;;;;;;1.77;1.50;;;;;;;;;;5041332;28;92065;-49
2022/07/29 14:06:43;;;;;;;3.97;1.83;;;;;;;;;;5039972;28;93831;-49
2022/07/29 14:09:12;;;;;;;2.53;1.50;;;;;;;;;;5041001;28;93759;-50
2022/07/29 14:11:40;;;;;;;2.60;1.90;;;;;;;;;;5040532;28;92104;-49
2022/07/29 14:14:10;;;;;;;2.17;1.40;;;;;;;;;;5041274;28;92069;-49
2022/07/29 14:16:38;;;;;;;1.70;1.53;;;;;;;;;;5040338;28;94325;-49
2022/07/29 14:19:17;;;;;;;2.57;1.90;;;;;;;;;;5040500;28;93945;-51
2022/07/29 14:21:46;;;;;;;4.13;1.93;;;;;;;;;;5040681;28;91963;-49
2022/07/29 14:24:14;;;;;;;2.63;1.80;;;;;;;;;;5041226;28;91230;-49
2022/07/29 14:26:48;;;;;;;2.40;1.70;;;;;;;;;;5040733;28;94088;-49
2022/07/29 14:29:17;;;;;;;2.50;1.90;;;;;;;;;;5040590;28;93880;-49
2022/07/29 14:31:45;;;;;;;3.77;2.13;;;;;;;;;;5039398;28;93160;-49
2022/07/29 14:34:15;;;;;;;2.77;2.10;;;;;;;;;;5040724;28;92056;-50
2022/07/29 14:36:44;;;;;;;2.50;2.00;;;;;;;;;;5040159;28;94175;-49
2022/07/29 14:39:13;;;;;;;5.27;2.10;;;;;;;;;;5040524;28;93995;-49
2022/07/29 14:41:41;;;;;;;4.67;2.70;;;;;;;;;;5040421;28;92008;-49
2022/07/29 14:44:09;;;;;;;3.20;1.87;;;;;;;;;;5040559;28;92037;-49
2022/07/29 14:46:38;;;;;;;3.30;2.27;;;;;;;;;;5039700;28;93103;-50
2022/07/29 14:49:06;;;;;;;5.03;2.40;;;;;;;;;;5039181;28;94236;-49
2022/07/29 14:51:37;;;;;;;4.43;2.80;;;;;;;;;;5040514;28;92141;-49
2022/07/29 14:54:08;;;;;;;3.73;2.20;;;;;;;;;;5040396;27;92077;-49
2022/07/29 14:56:37;;;;;;;3.10;2.50;;;;;;;;;;5039410;28;95105;-49
2022/07/29 14:59:14;;;;;;;4.20;2.50;;;;;;;;;;5039971;28;93654;-49
2022/07/29 15:01:42;;;;;;;4.37;2.80;;;;;;;;;;5039746;28;91778;-49
2022/07/29 15:04:10;;;;;;;2.97;2.67;;;;;;;;;;5040089;28;91812;-49
2022/07/29 15:06:39;;;;;;;2.73;2.03;;;;;;;;;;5038878;28;93004;-49